Clearing, Illinois
Current Conditions -  °F | °C
As of 8:30 AM on Thursday 27 Nov 2014 (Local Time) from KMDW Reporting Station
Overcast Overcast  
Wind Chill: 16°   Ceiling: 1600
Heat Index: 26°   Visibility: 9mi
Dew Point: 20°   Wind: 12mph
Humidity: 78%   Direction: 310°NW
Pressure: 30.31"   Gusts: NA
Location:  41.789°N, 87.7699°W
Report Text: KMDW 271430Z 31010KT 9SM OVC016 M03/M07 A3031 RMK AO2 T10331067
Loading
Personal Weather Stations






























Interactive Weather Map New forecast layout! Learn more

10-Day Weather Forecast

Advertisements
Track Severe Weather on mobile